Time,TemperatureF,DewpointF,PressureIn,WindDirection,WindDirectionDegrees,WindSpeedMPH,WindSpeedGustMPH,Humidity,HourlyPrecipIn,Conditions,Clouds,dailyrainin,SoftwareType,DateUTC
2013-04-25 00:01:00,61.7,40.7,29.96,ESE,114,3.6,5.8,46,0.00,,,0.00,VWS V14.00,2013-04-25 04:01:00,
2013-04-25 00:02:00,61.7,40.2,29.96,SE,138,4.0,4.0,45,0.00,,,0.00,VWS V14.00,2013-04-25 04:02:00,
2013-04-25 00:07:00,61.7,39.0,29.99,SE,146,3.6,4.0,43,0.00,,,0.00,VWS V14.00,2013-04-25 04:07:00,
2013-04-25 00:12:00,61.7,37.2,29.99,SSW,212,7.6,7.6,40,0.00,,,0.00,VWS V14.00,2013-04-25 04:12:00,
2013-04-25 00:17:00,61.3,36.2,29.99,SE,145,6.3,6.3,39,0.00,,,0.00,VWS V14.00,2013-04-25 04:17:00,
2013-04-25 00:22:00,61.0,35.9,29.99,SE,133,5.4,5.4,39,0.00,,,0.00,VWS V14.00,2013-04-25 04:22:00,
2013-04-25 00:27:00,60.8,35.7,29.99,South,181,4.0,5.4,39,0.00,,,0.00,VWS V14.00,2013-04-25 04:27:00,
2013-04-25 00:32:00,60.4,35.4,29.99,SE,143,3.1,3.1,39,0.00,,,0.00,VWS V14.00,2013-04-25 04:32:00,
2013-04-25 00:37:00,60.4,35.4,30.02,SE,146,0.0,0.0,39,0.00,,,0.00,VWS V14.00,2013-04-25 04:37:00,
2013-04-25 00:42:00,60.1,35.1,30.02,SSW,194,2.2,3.6,39,0.00,,,0.00,VWS V14.00,2013-04-25 04:42:00,
2013-04-25 00:47:00,59.9,33.6,30.02,SSE,155,5.8,6.3,37,0.00,,,0.00,VWS V14.00,2013-04-25 04:47:00,
2013-04-25 00:52:00,59.5,32.6,30.02,East,88,4.0,4.0,36,0.00,,,0.00,VWS V14.00,2013-04-25 04:52:00,
2013-04-25 00:57:00,59.4,32.4,30.02,SW,229,0.0,3.6,36,0.00,,,0.00,VWS V14.00,2013-04-25 04:57:00,
2013-04-25 01:02:00,59.4,32.4,30.02,WSW,243,3.1,4.0,36,0.00,,,0.00,VWS V14.00,2013-04-25 05:02:00,
2013-04-25 01:07:00,59.2,32.3,30.02,West,279,3.6,4.5,36,0.00,,,0.00,VWS V14.00,2013-04-25 05:07:00,
2013-04-25 01:12:00,59.0,32.1,30.02,South,170,4.5,7.6,36,0.00,,,0.00,VWS V14.00,2013-04-25 05:12:00,
2013-04-25 01:17:00,58.8,32.0,30.02,SSW,194,0.0,0.0,36,0.00,,,0.00,VWS V14.00,2013-04-25 05:17:00,
2013-04-25 01:22:00,58.6,31.8,30.02,SSE,164,3.1,4.0,36,0.00,,,0.00,VWS V14.00,2013-04-25 05:22:00,
2013-04-25 01:27:00,58.5,31.6,30.02,SSE,156,0.0,4.0,36,0.00,,,0.00,VWS V14.00,2013-04-25 05:27:00,
2013-04-25 01:32:00,58.5,31.6,30.02,SE,146,3.1,3.1,36,0.00,,,0.00,VWS V14.00,2013-04-25 05:32:00,
2013-04-25 01:37:00,58.3,31.5,30.02,SSE,150,3.6,5.8,36,0.00,,,0.00,VWS V14.00,2013-04-25 05:37:00,
2013-04-25 01:42:00,58.1,30.6,30.02,SE,145,0.0,3.1,35,0.00,,,0.00,VWS V14.00,2013-04-25 05:42:00,
2013-04-25 01:47:00,57.9,30.5,30.02,SE,138,0.0,2.7,35,0.00,,,0.00,VWS V14.00,2013-04-25 05:47:00,
2013-04-25 01:52:00,57.6,30.1,30.02,East,99,4.0,4.0,35,0.00,,,0.00,VWS V14.00,2013-04-25 05:52:00,
2013-04-25 01:57:00,57.0,29.7,30.02,South,171,5.4,5.4,35,0.00,,,0.00,VWS V14.00,2013-04-25 05:57:00,
2013-04-25 02:02:00,56.7,29.3,30.02,SSE,165,0.0,0.0,35,0.00,,,0.00,VWS V14.00,2013-04-25 06:02:00,
2013-04-25 02:08:00,56.5,29.9,30.05,North,9,0.0,0.0,36,0.00,,,0.00,VWS V14.00,2013-04-25 06:08:00,
2013-04-25 02:13:00,56.3,29.0,30.05,NW,311,2.2,2.2,35,0.00,,,0.00,VWS V14.00,2013-04-25 06:13:00,
2013-04-25 02:18:00,55.9,29.4,30.05,SSW,195,3.1,5.8,36,0.00,,,0.00,VWS V14.00,2013-04-25 06:18:00,
2013-04-25 02:22:00,55.8,29.2,30.05,ESE,120,0.0,0.0,36,0.00,,,0.00,VWS V14.00,2013-04-25 06:22:00,
2013-04-25 02:27:00,55.6,29.1,30.05,SE,127,3.1,3.1,36,0.00,,,0.00,VWS V14.00,2013-04-25 06:27:00,
2013-04-25 02:32:00,55.4,28.9,30.05,SE,133,5.4,5.8,36,0.00,,,0.00,VWS V14.00,2013-04-25 06:32:00,
2013-04-25 02:37:00,55.0,28.6,30.05,SE,135,0.0,2.2,36,0.00,,,0.00,VWS V14.00,2013-04-25 06:37:00,
2013-04-25 02:43:00,54.9,28.4,30.05,SE,139,4.5,6.3,36,0.00,,,0.00,VWS V14.00,2013-04-25 06:43:00,
2013-04-25 02:47:00,54.7,28.3,30.05,ENE,61,2.7,2.7,36,0.00,,,0.00,VWS V14.00,2013-04-25 06:47:00,
2013-04-25 02:52:00,54.5,28.1,30.05,SE,136,3.1,5.4,36,0.00,,,0.00,VWS V14.00,2013-04-25 06:52:00,
2013-04-25 02:58:00,54.1,27.1,30.05,East,83,2.7,4.0,35,0.00,,,0.00,VWS V14.00,2013-04-25 06:58:00,
2013-04-25 03:03:00,54.0,27.6,30.05,ENE,64,2.7,2.7,36,0.00,,,0.00,VWS V14.00,2013-04-25 07:03:00,
2013-04-25 03:08:00,53.8,26.8,30.08,SE,135,5.8,5.8,35,0.00,,,0.00,VWS V14.00,2013-04-25 07:08:00,
2013-04-25 03:13:00,53.2,27.0,30.08,South,185,0.0,0.0,36,0.00,,,0.00,VWS V14.00,2013-04-25 07:13:00,
2013-04-25 03:18:00,52.9,26.7,30.08,SSE,151,4.9,4.9,36,0.00,,,0.00,VWS V14.00,2013-04-25 07:18:00,
2013-04-25 03:23:00,52.5,26.4,30.08,SSE,167,3.1,4.0,36,0.00,,,0.00,VWS V14.00,2013-04-25 07:23:00,
2013-04-25 03:28:00,52.2,26.0,30.08,West,274,4.5,6.3,36,0.00,,,0.00,VWS V14.00,2013-04-25 07:28:00,
2013-04-25 03:33:00,51.8,25.7,30.08,SSW,198,2.7,4.0,36,0.00,,,0.00,VWS V14.00,2013-04-25 07:33:00,
2013-04-25 03:38:00,51.6,25.6,30.08,SSW,201,2.7,4.9,36,0.00,,,0.00,VWS V14.00,2013-04-25 07:38:00,
2013-04-25 03:43:00,51.3,25.2,30.08,ENE,64,8.3,8.3,36,0.00,,,0.00,VWS V14.00,2013-04-25 07:43:00,
2013-04-25 03:48:00,51.1,25.1,30.08,SE,142,3.6,3.6,36,0.00,,,0.00,VWS V14.00,2013-04-25 07:48:00,
2013-04-25 03:53:00,51.1,25.1,30.11,SE,139,5.4,5.4,36,0.00,,,0.00,VWS V14.00,2013-04-25 07:53:00,
2013-04-25 03:58:00,50.9,24.9,30.11,SE,127,4.0,4.0,36,0.00,,,0.00,VWS V14.00,2013-04-25 07:58:00,
2013-04-25 04:03:00,50.7,24.8,30.11,SE,140,0.0,0.0,36,0.00,,,0.00,VWS V14.00,2013-04-25 08:03:00,
2013-04-25 04:08:00,50.5,24.6,30.11,ESE,110,4.9,4.9,36,0.00,,,0.00,VWS V14.00,2013-04-25 08:08:00,
2013-04-25 04:13:00,50.4,24.4,30.11,SE,135,0.0,5.8,36,0.00,,,0.00,VWS V14.00,2013-04-25 08:13:00,
2013-04-25 04:18:00,50.2,24.3,30.11,SSE,154,2.7,5.4,36,0.00,,,0.00,VWS V14.00,2013-04-25 08:18:00,
2013-04-25 04:23:00,50.0,24.1,30.11,South,183,5.8,8.1,36,0.00,,,0.00,VWS V14.00,2013-04-25 08:23:00,
2013-04-25 04:28:00,50.0,24.1,30.11,WSW,249,4.9,4.9,36,0.00,,,0.00,VWS V14.00,2013-04-25 08:28:00,
2013-04-25 04:33:00,50.0,22.8,30.11,South,183,0.0,3.6,34,0.00,,,0.00,VWS V14.00,2013-04-25 08:33:00,
2013-04-25 04:38:00,49.8,22.6,30.11,NE,53,3.1,3.1,34,0.00,,,0.00,VWS V14.00,2013-04-25 08:38:00,
2013-04-25 04:43:00,49.8,21.9,30.11,WSW,254,2.2,5.4,33,0.00,,,0.00,VWS V14.00,2013-04-25 08:43:00,
2013-04-25 04:48:00,49.8,22.6,30.11,East,83,2.7,4.0,34,0.00,,,0.00,VWS V14.00,2013-04-25 08:48:00,
2013-04-25 04:53:00,49.8,21.9,30.14,WNW,302,0.0,0.0,33,0.00,,,0.00,VWS V14.00,2013-04-25 08:53:00,
2013-04-25 04:58:00,49.8,21.9,30.14,WNW,282,0.0,2.7,33,0.00,,,0.00,VWS V14.00,2013-04-25 08:58:00,
2013-04-25 05:03:00,49.6,21.0,30.14,WSW,244,0.0,4.0,32,0.00,,,0.00,VWS V14.00,2013-04-25 09:03:00,
2013-04-25 05:08:00,49.6,22.4,30.14,SSE,163,2.2,2.2,34,0.00,,,0.00,VWS V14.00,2013-04-25 09:08:00,
2013-04-25 05:13:00,49.6,22.4,30.14,SSE,158,0.0,3.6,34,0.00,,,0.00,VWS V14.00,2013-04-25 09:13:00,
2013-04-25 05:18:00,49.5,21.6,30.14,SE,145,0.0,2.7,33,0.00,,,0.00,VWS V14.00,2013-04-25 09:18:00,
2013-04-25 05:23:00,49.3,21.4,30.14,SE,134,0.0,0.0,33,0.00,,,0.00,VWS V14.00,2013-04-25 09:23:00,
2013-04-25 05:28:00,49.3,21.4,30.14,SSE,154,0.0,0.0,33,0.00,,,0.00,VWS V14.00,2013-04-25 09:28:00,
2013-04-25 05:33:00,49.1,21.3,30.14,SSE,154,0.0,0.0,33,0.00,,,0.00,VWS V14.00,2013-04-25 09:33:00,
2013-04-25 05:38:00,48.9,21.1,30.14,SSE,154,0.0,0.0,33,0.00,,,0.00,VWS V14.00,2013-04-25 09:38:00,
2013-04-25 05:43:00,48.6,20.8,30.14,SE,144,0.0,0.0,33,0.00,,,0.00,VWS V14.00,2013-04-25 09:43:00,
2013-04-25 05:48:00,48.4,21.3,30.14,SE,128,0.0,0.0,34,0.00,,,0.00,VWS V14.00,2013-04-25 09:48:00,
2013-04-25 05:53:00,48.0,21.7,30.17,SE,133,0.0,0.0,35,0.00,,,0.00,VWS V14.00,2013-04-25 09:53:00,
2013-04-25 05:58:00,47.8,21.5,30.17,SE,133,0.0,0.0,35,0.00,,,0.00,VWS V14.00,2013-04-25 09:58:00,
2013-04-25 06:03:00,47.7,21.4,30.17,SE,133,0.0,0.0,35,0.00,,,0.00,VWS V14.00,2013-04-25 10:03:00,
2013-04-25 06:08:00,47.3,21.7,30.17,SE,133,0.0,0.0,36,0.00,,,0.00,VWS V14.00,2013-04-25 10:08:00,
2013-04-25 06:13:00,47.1,21.6,30.17,SE,133,0.0,0.0,36,0.00,,,0.00,VWS V14.00,2013-04-25 10:13:00,
2013-04-25 06:18:00,46.8,21.2,30.17,SE,133,0.0,0.0,36,0.00,,,0.00,VWS V14.00,2013-04-25 10:18:00,
2013-04-25 06:23:00,46.6,21.7,30.17,SE,138,0.0,0.0,37,0.00,,,0.00,VWS V14.00,2013-04-25 10:23:00,
2013-04-25 06:29:00,46.4,21.6,30.17,SSW,213,0.0,0.0,37,0.00,,,0.00,VWS V14.00,2013-04-25 10:29:00,
2013-04-25 06:34:00,46.2,21.4,30.17,SSW,213,0.0,0.0,37,0.00,,,0.00,VWS V14.00,2013-04-25 10:34:00,
2013-04-25 06:39:00,46.0,21.2,30.20,SSW,213,0.0,0.0,37,0.00,,,0.00,VWS V14.00,2013-04-25 10:39:00,
2013-04-25 06:44:00,45.9,21.1,30.20,SSW,213,0.0,0.0,37,0.00,,,0.00,VWS V14.00,2013-04-25 10:44:00,
2013-04-25 06:49:00,45.9,21.1,30.20,SW,218,0.0,0.0,37,0.00,,,0.00,VWS V14.00,2013-04-25 10:49:00,
2013-04-25 06:54:00,45.9,21.1,30.20,SW,218,0.0,0.0,37,0.00,,,0.00,VWS V14.00,2013-04-25 10:54:00,
2013-04-25 06:59:00,45.9,21.1,30.20,SW,219,0.0,0.0,37,0.00,,,0.00,VWS V14.00,2013-04-25 10:59:00,
2013-04-25 07:04:00,45.7,20.9,30.20,SW,229,0.0,0.0,37,0.00,,,0.00,VWS V14.00,2013-04-25 11:04:00,
2013-04-25 07:09:00,45.5,20.8,30.20,NNW,329,0.0,0.0,37,0.00,,,0.00,VWS V14.00,2013-04-25 11:09:00,
2013-04-25 07:14:00,45.5,21.4,30.20,NNW,329,0.0,0.0,38,0.00,,,0.00,VWS V14.00,2013-04-25 11:14:00,
2013-04-25 07:19:00,45.3,21.2,30.20,NNW,329,0.0,0.0,38,0.00,,,0.00,VWS V14.00,2013-04-25 11:19:00,
2013-04-25 07:24:00,45.3,21.2,30.23,NNE,33,0.0,0.0,38,0.00,,,0.00,VWS V14.00,2013-04-25 11:24:00,
2013-04-25 07:29:00,45.3,20.6,30.23,East,90,0.0,3.1,37,0.00,,,0.00,VWS V14.00,2013-04-25 11:29:00,
2013-04-25 07:34:00,45.5,20.8,30.23,SSW,201,0.0,0.0,37,0.00,,,0.00,VWS V14.00,2013-04-25 11:34:00,
2013-04-25 07:39:00,45.7,18.2,30.23,WSW,243,2.7,3.6,33,0.00,,,0.00,VWS V14.00,2013-04-25 11:39:00,
2013-04-25 07:44:00,45.9,17.7,30.23,South,186,2.7,2.7,32,0.00,,,0.00,VWS V14.00,2013-04-25 11:44:00,
2013-04-25 07:49:00,46.0,17.9,30.23,SSW,200,2.2,2.7,32,0.00,,,0.00,VWS V14.00,2013-04-25 11:49:00,
2013-04-25 07:54:00,46.2,17.3,30.23,SW,235,2.7,3.1,31,0.00,,,0.00,VWS V14.00,2013-04-25 11:54:00,
2013-04-25 07:59:00,46.4,17.4,30.23,SW,235,0.0,0.0,31,0.00,,,0.00,VWS V14.00,2013-04-25 11:59:00,
2013-04-25 08:04:00,46.6,16.8,30.23,SW,226,2.7,2.7,30,0.00,,,0.00,VWS V14.00,2013-04-25 12:04:00,
2013-04-25 08:10:00,46.8,17.0,30.23,SSE,155,0.0,0.0,30,0.00,,,0.00,VWS V14.00,2013-04-25 12:10:00,
2013-04-25 08:15:00,46.9,17.1,30.23,SSW,208,2.7,3.1,30,0.00,,,0.00,VWS V14.00,2013-04-25 12:15:00,
2013-04-25 08:20:00,46.9,17.1,30.23,SW,223,2.7,3.6,30,0.00,,,0.00,VWS V14.00,2013-04-25 12:20:00,
2013-04-25 08:25:00,47.1,17.3,30.23,SSW,207,3.1,3.1,30,0.00,,,0.00,VWS V14.00,2013-04-25 12:25:00,
2013-04-25 08:30:00,47.3,16.7,30.23,West,265,2.7,3.6,29,0.00,,,0.00,VWS V14.00,2013-04-25 12:30:00,
2013-04-25 08:35:00,47.5,16.8,30.23,West,261,0.0,0.0,29,0.00,,,0.00,VWS V14.00,2013-04-25 12:35:00,
2013-04-25 08:40:00,47.7,17.0,30.23,WSW,237,2.2,3.1,29,0.00,,,0.00,VWS V14.00,2013-04-25 12:40:00,
2013-04-25 08:45:00,47.8,17.1,30.23,SW,220,2.7,2.7,29,0.00,,,0.00,VWS V14.00,2013-04-25 12:45:00,
2013-04-25 08:50:00,48.0,17.3,30.26,SW,219,3.1,3.1,29,0.00,,,0.00,VWS V14.00,2013-04-25 12:50:00,
2013-04-25 08:55:00,48.2,17.5,30.26,East,89,3.6,3.6,29,0.00,,,0.00,VWS V14.00,2013-04-25 12:55:00,
2013-04-25 09:00:00,48.4,17.6,30.26,SSE,168,3.1,3.1,29,0.00,,,0.00,VWS V14.00,2013-04-25 13:00:00,
2013-04-25 09:05:00,48.6,17.0,30.26,SE,132,4.0,4.0,28,0.00,,,0.00,VWS V14.00,2013-04-25 13:05:00,
2013-04-25 09:10:00,48.7,17.1,30.26,SSW,207,2.7,3.1,28,0.00,,,0.00,VWS V14.00,2013-04-25 13:10:00,
2013-04-25 09:15:00,49.1,17.4,30.26,SW,221,0.0,0.0,28,0.00,,,0.00,VWS V14.00,2013-04-25 13:15:00,
2013-04-25 09:20:00,49.3,17.6,30.26,South,181,0.0,0.0,28,0.00,,,0.00,VWS V14.00,2013-04-25 13:20:00,
2013-04-25 09:25:00,49.5,17.7,30.26,West,266,0.0,0.0,28,0.00,,,0.00,VWS V14.00,2013-04-25 13:25:00,
2013-04-25 09:30:00,49.8,18.0,30.26,SSW,205,2.2,4.0,28,0.00,,,0.00,VWS V14.00,2013-04-25 13:30:00,
2013-04-25 09:35:00,49.8,18.0,30.26,SW,232,3.1,4.0,28,0.00,,,0.00,VWS V14.00,2013-04-25 13:35:00,
2013-04-25 09:41:00,50.2,17.5,30.26,SW,229,0.0,2.2,27,0.00,,,0.00,VWS V14.00,2013-04-25 13:41:00,
2013-04-25 09:46:00,50.5,18.7,30.26,ESE,108,0.0,0.0,28,0.00,,,0.00,VWS V14.00,2013-04-25 13:46:00,
2013-04-25 09:51:00,50.9,18.1,30.26,SSW,209,0.0,0.0,27,0.00,,,0.00,VWS V14.00,2013-04-25 13:51:00,
2013-04-25 09:56:00,51.4,18.6,30.26,SW,220,0.0,4.0,27,0.00,,,0.00,VWS V14.00,2013-04-25 13:56:00,
2013-04-25 10:01:00,51.8,18.9,30.26,South,186,2.2,3.1,27,0.00,,,0.00,VWS V14.00,2013-04-25 14:01:00,
2013-04-25 10:06:00,52.0,19.1,30.23,SSW,210,2.7,3.1,27,0.00,,,0.00,VWS V14.00,2013-04-25 14:06:00,
2013-04-25 10:11:00,52.2,19.2,30.23,SW,224,0.0,0.0,27,0.00,,,0.00,VWS V14.00,2013-04-25 14:11:00,
2013-04-25 10:16:00,52.5,19.5,30.23,SW,224,0.0,0.0,27,0.00,,,0.00,VWS V14.00,2013-04-25 14:16:00,
2013-04-25 10:21:00,52.9,19.8,30.23,SW,229,3.1,3.1,27,0.00,,,0.00,VWS V14.00,2013-04-25 14:21:00,
2013-04-25 10:26:00,53.2,20.1,30.23,SW,225,2.7,3.6,27,0.00,,,0.00,VWS V14.00,2013-04-25 14:26:00,
2013-04-25 10:31:00,53.6,19.6,30.23,WSW,247,2.7,3.1,26,0.00,,,0.00,VWS V14.00,2013-04-25 14:31:00,
2013-04-25 10:36:00,54.0,19.9,30.23,South,189,0.0,2.2,26,0.00,,,0.00,VWS V14.00,2013-04-25 14:36:00,
2013-04-25 10:41:00,54.9,20.6,30.23,WSW,248,3.1,3.1,26,0.00,,,0.00,VWS V14.00,2013-04-25 14:41:00,
2013-04-25 10:46:00,55.0,20.8,30.23,SSW,204,0.0,2.7,26,0.00,,,0.00,VWS V14.00,2013-04-25 14:46:00,
2013-04-25 10:51:00,55.2,21.0,30.23,SW,230,2.7,3.6,26,0.00,,,0.00,VWS V14.00,2013-04-25 14:51:00,
2013-04-25 10:56:00,55.8,20.5,30.23,WSW,247,2.7,2.7,25,0.00,,,0.00,VWS V14.00,2013-04-25 14:56:00,
2013-04-25 11:01:00,55.9,20.6,30.23,SW,235,0.0,3.6,25,0.00,,,0.00,VWS V14.00,2013-04-25 15:01:00,
2013-04-25 11:06:00,56.5,21.1,30.23,WSW,252,0.0,0.0,25,0.00,,,0.00,VWS V14.00,2013-04-25 15:06:00,
2013-04-25 11:11:00,57.6,22.0,30.23,NNW,329,0.0,0.0,25,0.00,,,0.00,VWS V14.00,2013-04-25 15:11:00,
2013-04-25 11:16:00,58.1,21.5,30.23,SW,228,3.1,3.1,24,0.00,,,0.00,VWS V14.00,2013-04-25 15:16:00,
2013-04-25 11:21:00,57.9,19.3,30.23,SW,223,3.1,4.9,22,0.00,,,0.00,VWS V14.00,2013-04-25 15:21:00,
2013-04-25 11:26:00,57.9,19.3,30.23,SW,234,0.0,3.6,22,0.00,,,0.00,VWS V14.00,2013-04-25 15:26:00,
2013-04-25 11:31:00,57.7,19.2,30.23,SW,222,4.9,4.9,22,0.00,,,0.00,VWS V14.00,2013-04-25 15:31:00,
2013-04-25 11:36:00,57.9,19.3,30.23,SW,221,3.1,3.1,22,0.00,,,0.00,VWS V14.00,2013-04-25 15:36:00,
2013-04-25 11:41:00,58.8,20.1,30.23,ESE,119,2.7,2.7,22,0.00,,,0.00,VWS V14.00,2013-04-25 15:41:00,
2013-04-25 11:46:00,59.7,17.4,30.23,SW,227,3.1,4.0,19,0.00,,,0.00,VWS V14.00,2013-04-25 15:46:00,
2013-04-25 11:51:00,60.3,17.9,30.23,WSW,242,0.0,0.0,19,0.00,,,0.00,VWS V14.00,2013-04-25 15:51:00,
2013-04-25 11:56:00,61.2,18.6,30.23,SW,217,0.0,0.0,19,0.00,,,0.00,VWS V14.00,2013-04-25 15:56:00,
2013-04-25 12:01:00,61.2,18.6,30.23,ENE,74,3.1,3.1,19,0.00,,,0.00,VWS V14.00,2013-04-25 16:01:00,
2013-04-25 12:07:00,61.9,19.2,30.23,SW,220,0.0,0.0,19,0.00,,,0.00,VWS V14.00,2013-04-25 16:07:00,
2013-04-25 12:12:00,62.1,19.3,30.23,SSW,211,0.0,3.1,19,0.00,,,0.00,VWS V14.00,2013-04-25 16:12:00,
2013-04-25 12:17:00,62.8,15.9,30.23,SE,125,3.1,4.0,16,0.00,,,0.00,VWS V14.00,2013-04-25 16:17:00,
2013-04-25 12:22:00,63.1,16.2,30.23,SW,218,2.7,2.7,16,0.00,,,0.00,VWS V14.00,2013-04-25 16:22:00,
2013-04-25 12:27:00,63.1,16.2,30.23,SSW,196,3.6,4.0,16,0.00,,,0.00,VWS V14.00,2013-04-25 16:27:00,
2013-04-25 12:32:00,63.0,16.1,30.23,NNW,341,0.0,0.0,16,0.00,,,0.00,VWS V14.00,2013-04-25 16:32:00,
2013-04-25 12:37:00,63.7,16.7,30.20,West,281,0.0,0.0,16,0.00,,,0.00,VWS V14.00,2013-04-25 16:37:00,
2013-04-25 12:42:00,64.0,17.0,30.20,WSW,244,3.1,3.1,16,0.00,,,0.00,VWS V14.00,2013-04-25 16:42:00,
2013-04-25 12:47:00,64.2,17.1,30.20,SSW,206,2.2,2.2,16,0.00,,,0.00,VWS V14.00,2013-04-25 16:47:00,
2013-04-25 12:52:00,64.8,16.1,30.20,WNW,298,0.0,0.0,15,0.00,,,0.00,VWS V14.00,2013-04-25 16:52:00,
2013-04-25 12:57:00,65.5,16.6,30.20,WSW,239,0.0,0.0,15,0.00,,,0.00,VWS V14.00,2013-04-25 16:57:00,
2013-04-25 13:02:00,66.2,17.2,30.20,NNW,342,0.0,0.0,15,0.00,,,0.00,VWS V14.00,2013-04-25 17:02:00,
2013-04-25 13:07:00,66.6,17.5,30.20,ENE,74,0.0,0.0,15,0.00,,,0.00,VWS V14.00,2013-04-25 17:07:00,
2013-04-25 13:12:00,66.7,17.6,30.20,SW,218,0.0,0.0,15,0.00,,,0.00,VWS V14.00,2013-04-25 17:12:00,
2013-04-25 13:17:00,67.5,18.2,30.20,WNW,284,0.0,2.2,15,0.00,,,0.00,VWS V14.00,2013-04-25 17:17:00,
2013-04-25 13:22:00,67.5,13.1,30.17,SW,233,0.0,2.2,12,0.00,,,0.00,VWS V14.00,2013-04-25 17:22:00,
2013-04-25 13:27:00,67.8,18.5,30.17,SSW,205,0.0,0.0,15,0.00,,,0.00,VWS V14.00,2013-04-25 17:27:00,
2013-04-25 13:32:00,68.2,18.8,30.17,SSE,158,2.7,3.1,15,0.00,,,0.00,VWS V14.00,2013-04-25 17:32:00,
2013-04-25 13:37:00,68.4,13.8,30.17,South,170,0.0,0.0,12,0.00,,,0.00,VWS V14.00,2013-04-25 17:37:00,
2013-04-25 13:42:00,68.7,14.1,30.17,SSW,210,0.0,0.0,12,0.00,,,0.00,VWS V14.00,2013-04-25 17:42:00,
2013-04-25 13:47:00,68.7,14.1,30.17,East,83,0.0,0.0,12,0.00,,,0.00,VWS V14.00,2013-04-25 17:47:00,
2013-04-25 13:52:00,69.1,14.4,30.17,ESE,123,2.7,4.0,12,0.00,,,0.00,VWS V14.00,2013-04-25 17:52:00,
2013-04-25 13:57:00,68.5,13.9,30.17,North,0,4.0,4.0,12,0.00,,,0.00,VWS V14.00,2013-04-25 17:57:00,
2013-04-25 14:02:00,68.7,14.1,30.17,SSW,196,0.0,3.1,12,0.00,,,0.00,VWS V14.00,2013-04-25 18:02:00,
2013-04-25 14:07:00,69.6,14.8,30.17,NE,51,2.2,3.1,12,0.00,,,0.00,VWS V14.00,2013-04-25 18:07:00,
2013-04-25 14:12:00,69.8,14.9,30.17,South,172,0.0,0.0,12,0.00,,,0.00,VWS V14.00,2013-04-25 18:12:00,
2013-04-25 14:17:00,70.3,15.4,30.17,WSW,247,2.7,3.6,12,0.00,,,0.00,VWS V14.00,2013-04-25 18:17:00,
2013-04-25 14:22:00,70.2,15.2,30.17,SE,146,3.1,3.1,12,0.00,,,0.00,VWS V14.00,2013-04-25 18:22:00,
2013-04-25 14:27:00,70.2,15.2,30.17,North,3,0.0,2.2,12,0.00,,,0.00,VWS V14.00,2013-04-25 18:27:00,
2013-04-25 14:32:00,70.5,15.5,30.17,WSW,239,0.0,0.0,12,0.00,,,0.00,VWS V14.00,2013-04-25 18:32:00,
2013-04-25 14:37:00,71.2,16.1,30.17,SW,217,0.0,0.0,12,0.00,,,0.00,VWS V14.00,2013-04-25 18:37:00,
2013-04-25 14:42:00,71.4,16.2,30.17,SW,224,0.0,0.0,12,0.00,,,0.00,VWS V14.00,2013-04-25 18:42:00,
2013-04-25 14:48:00,71.6,14.4,30.17,SSE,159,0.0,0.0,11,0.00,,,0.00,VWS V14.00,2013-04-25 18:48:00,
2013-04-25 14:53:00,72.0,14.6,30.14,SSW,204,0.0,0.0,11,0.00,,,0.00,VWS V14.00,2013-04-25 18:53:00,
2013-04-25 14:58:00,72.0,14.6,30.14,SW,236,3.6,3.6,11,0.00,,,0.00,VWS V14.00,2013-04-25 18:58:00,
2013-04-25 15:03:00,71.4,16.2,30.14,SW,235,0.0,0.0,12,0.00,,,0.00,VWS V14.00,2013-04-25 19:03:00,
2013-04-25 15:08:00,71.6,14.4,30.14,NW,315,0.0,2.2,11,0.00,,,0.00,VWS V14.00,2013-04-25 19:08:00,
2013-04-25 15:13:00,72.1,14.8,30.14,SW,224,2.7,3.1,11,0.00,,,0.00,VWS V14.00,2013-04-25 19:13:00,
2013-04-25 15:18:00,72.3,14.9,30.14,NW,313,0.0,0.0,11,0.00,,,0.00,VWS V14.00,2013-04-25 19:18:00,
2013-04-25 15:23:00,72.7,15.2,30.14,ESE,105,0.0,3.6,11,0.00,,,0.00,VWS V14.00,2013-04-25 19:23:00,
2013-04-25 15:28:00,72.7,15.2,30.14,NNW,335,0.0,0.0,11,0.00,,,0.00,VWS V14.00,2013-04-25 19:28:00,
2013-04-25 15:33:00,73.4,15.7,30.14,North,353,0.0,0.0,11,0.00,,,0.00,VWS V14.00,2013-04-25 19:33:00,
2013-04-25 15:38:00,73.9,16.1,30.14,NNE,23,0.0,2.7,11,0.00,,,0.00,VWS V14.00,2013-04-25 19:38:00,
2013-04-25 15:43:00,74.1,16.3,30.14,North,9,2.7,2.7,11,0.00,,,0.00,VWS V14.00,2013-04-25 19:43:00,
2013-04-25 15:48:00,74.1,16.3,30.14,NNW,339,0.0,0.0,11,0.00,,,0.00,VWS V14.00,2013-04-25 19:48:00,
2013-04-25 15:53:00,73.9,16.1,30.14,North,10,0.0,2.2,11,0.00,,,0.00,VWS V14.00,2013-04-25 19:53:00,
2013-04-25 15:58:00,74.3,16.4,30.14,WSW,249,3.1,3.1,11,0.00,,,0.00,VWS V14.00,2013-04-25 19:58:00,
2013-04-25 16:03:00,74.5,16.6,30.14,North,357,0.0,2.7,11,0.00,,,0.00,VWS V14.00,2013-04-25 20:03:00,
2013-04-25 16:08:00,74.7,16.7,30.14,North,357,0.0,0.0,11,0.00,,,0.00,VWS V14.00,2013-04-25 20:08:00,
2013-04-25 16:13:00,74.8,16.9,30.14,North,357,3.6,3.6,11,0.00,,,0.00,VWS V14.00,2013-04-25 20:13:00,
2013-04-25 16:18:00,75.2,14.9,30.14,North,350,0.0,2.2,10,0.00,,,0.00,VWS V14.00,2013-04-25 20:18:00,
2013-04-25 16:23:00,74.7,16.7,30.14,North,350,0.0,0.0,11,0.00,,,0.00,VWS V14.00,2013-04-25 20:23:00,
2013-04-25 16:28:00,74.5,16.6,30.14,WNW,296,5.8,5.8,11,0.00,,,0.00,VWS V14.00,2013-04-25 20:28:00,
2013-04-25 16:33:00,74.5,16.6,30.14,NNE,19,0.0,2.7,11,0.00,,,0.00,VWS V14.00,2013-04-25 20:33:00,
2013-04-25 16:38:00,74.5,16.6,30.14,NE,56,0.0,0.0,11,0.00,,,0.00,VWS V14.00,2013-04-25 20:38:00,
2013-04-25 16:43:00,74.3,16.4,30.14,South,174,2.7,2.7,11,0.00,,,0.00,VWS V14.00,2013-04-25 20:43:00,
2013-04-25 16:48:00,74.1,16.3,30.14,North,0,0.0,2.7,11,0.00,,,0.00,VWS V14.00,2013-04-25 20:48:00,
2013-04-25 16:53:00,74.3,16.4,30.14,ESE,118,4.0,4.0,11,0.00,,,0.00,VWS V14.00,2013-04-25 20:53:00,
2013-04-25 16:58:00,73.9,16.1,30.14,East,83,0.0,0.0,11,0.00,,,0.00,VWS V14.00,2013-04-25 20:58:00,
2013-04-25 17:03:00,73.8,16.0,30.14,SE,136,0.0,2.7,11,0.00,,,0.00,VWS V14.00,2013-04-25 21:03:00,
2013-04-25 17:08:00,73.2,15.6,30.11,ENE,63,0.0,0.0,11,0.00,,,0.00,VWS V14.00,2013-04-25 21:08:00,
2013-04-25 17:13:00,73.4,15.7,30.11,NE,36,0.0,0.0,11,0.00,,,0.00,VWS V14.00,2013-04-25 21:13:00,
2013-04-25 17:18:00,73.2,15.6,30.11,North,4,0.0,0.0,11,0.00,,,0.00,VWS V14.00,2013-04-25 21:18:00,
2013-04-25 17:23:00,73.0,15.5,30.11,NNE,24,0.0,0.0,11,0.00,,,0.00,VWS V14.00,2013-04-25 21:23:00,
2013-04-25 17:29:00,73.0,15.5,30.11,NNW,346,0.0,0.0,11,0.00,,,0.00,VWS V14.00,2013-04-25 21:29:00,
2013-04-25 17:34:00,72.7,15.2,30.11,SSW,202,0.0,0.0,11,0.00,,,0.00,VWS V14.00,2013-04-25 21:34:00,
2013-04-25 17:39:00,72.7,15.2,30.14,NNW,340,3.1,3.6,11,0.00,,,0.00,VWS V14.00,2013-04-25 21:39:00,
2013-04-25 17:44:00,72.7,15.2,30.14,NNW,339,0.0,0.0,11,0.00,,,0.00,VWS V14.00,2013-04-25 21:44:00,
2013-04-25 17:49:00,72.0,14.6,30.14,SSE,162,2.7,4.0,11,0.00,,,0.00,VWS V14.00,2013-04-25 21:49:00,
2013-04-25 17:54:00,71.4,16.2,30.14,SE,139,0.0,0.0,12,0.00,,,0.00,VWS V14.00,2013-04-25 21:54:00,
2013-04-25 17:59:00,71.2,16.1,30.14,NNW,337,0.0,0.0,12,0.00,,,0.00,VWS V14.00,2013-04-25 21:59:00,
2013-04-25 18:04:00,71.1,15.9,30.14,North,357,0.0,0.0,12,0.00,,,0.00,VWS V14.00,2013-04-25 22:04:00,
2013-04-25 18:09:00,70.7,15.6,30.14,North,357,0.0,0.0,12,0.00,,,0.00,VWS V14.00,2013-04-25 22:09:00,
2013-04-25 18:14:00,70.0,15.1,30.14,North,357,0.0,0.0,12,0.00,,,0.00,VWS V14.00,2013-04-25 22:14:00,
2013-04-25 18:19:00,69.4,14.6,30.14,North,357,0.0,0.0,12,0.00,,,0.00,VWS V14.00,2013-04-25 22:19:00,
2013-04-25 18:24:00,68.9,14.2,30.14,North,357,0.0,0.0,12,0.00,,,0.00,VWS V14.00,2013-04-25 22:24:00,
2013-04-25 18:29:00,68.5,13.9,30.14,North,357,0.0,0.0,12,0.00,,,0.00,VWS V14.00,2013-04-25 22:29:00,
2013-04-25 18:34:00,68.2,13.7,30.14,North,357,0.0,0.0,12,0.00,,,0.00,VWS V14.00,2013-04-25 22:34:00,
2013-04-25 18:39:00,67.8,13.4,30.14,North,357,0.0,0.0,12,0.00,,,0.00,VWS V14.00,2013-04-25 22:39:00,
2013-04-25 18:44:00,67.5,13.1,30.14,North,357,0.0,0.0,12,0.00,,,0.00,VWS V14.00,2013-04-25 22:44:00,
2013-04-25 18:49:00,67.3,13.0,30.14,North,357,0.0,0.0,12,0.00,,,0.00,VWS V14.00,2013-04-25 22:49:00,
2013-04-25 18:54:00,66.9,12.7,30.14,North,357,0.0,0.0,12,0.00,,,0.00,VWS V14.00,2013-04-25 22:54:00,
2013-04-25 18:59:00,66.4,12.3,30.14,North,357,0.0,0.0,12,0.00,,,0.00,VWS V14.00,2013-04-25 22:59:00,
2013-04-25 19:04:00,66.0,13.8,30.14,North,357,0.0,0.0,13,0.00,,,0.00,VWS V14.00,2013-04-25 23:04:00,
2013-04-25 19:09:00,65.7,13.5,30.14,North,357,0.0,0.0,13,0.00,,,0.00,VWS V14.00,2013-04-25 23:09:00,
2013-04-25 19:14:00,65.5,13.4,30.14,North,357,0.0,0.0,13,0.00,,,0.00,VWS V14.00,2013-04-25 23:14:00,
2013-04-25 19:19:00,65.1,13.1,30.14,North,357,0.0,0.0,13,0.00,,,0.00,VWS V14.00,2013-04-25 23:19:00,
2013-04-25 19:24:00,64.8,12.8,30.14,North,357,0.0,0.0,13,0.00,,,0.00,VWS V14.00,2013-04-25 23:24:00,
2013-04-25 19:29:00,64.6,12.7,30.14,North,357,0.0,0.0,13,0.00,,,0.00,VWS V14.00,2013-04-25 23:29:00,
2013-04-25 19:34:00,64.2,12.4,30.14,North,357,0.0,0.0,13,0.00,,,0.00,VWS V14.00,2013-04-25 23:34:00,
2013-04-25 19:39:00,63.3,11.7,30.14,North,357,0.0,0.0,13,0.00,,,0.00,VWS V14.00,2013-04-25 23:39:00,
2013-04-25 19:44:00,63.0,11.4,30.14,North,357,0.0,0.0,13,0.00,,,0.00,VWS V14.00,2013-04-25 23:44:00,
2013-04-25 19:49:00,62.8,11.2,30.17,North,357,0.0,0.0,13,0.00,,,0.00,VWS V14.00,2013-04-25 23:49:00,
2013-04-25 19:54:00,62.4,12.6,30.17,North,357,0.0,0.0,14,0.00,,,0.00,VWS V14.00,2013-04-25 23:54:00,
2013-04-25 19:59:00,62.1,12.3,30.17,North,357,0.0,0.0,14,0.00,,,0.00,VWS V14.00,2013-04-25 23:59:00,
2013-04-25 20:04:00,61.7,12.1,30.17,North,357,0.0,0.0,14,0.00,,,0.00,VWS V14.00,2013-04-26 00:04:00,
2013-04-25 20:10:00,61.3,11.8,30.17,North,357,0.0,0.0,14,0.00,,,0.00,VWS V14.00,2013-04-26 00:10:00,
2013-04-25 20:15:00,61.0,11.5,30.17,North,357,0.0,0.0,14,0.00,,,0.00,VWS V14.00,2013-04-26 00:15:00,
2013-04-25 20:20:00,60.6,11.2,30.17,North,357,0.0,0.0,14,0.00,,,0.00,VWS V14.00,2013-04-26 00:20:00,
2013-04-25 20:25:00,60.4,11.0,30.17,North,357,0.0,0.0,14,0.00,,,0.00,VWS V14.00,2013-04-26 00:25:00,
2013-04-25 20:30:00,60.4,11.0,30.17,North,357,0.0,0.0,14,0.00,,,0.00,VWS V14.00,2013-04-26 00:30:00,
2013-04-25 20:35:00,60.3,10.9,30.17,North,357,0.0,0.0,14,0.00,,,0.00,VWS V14.00,2013-04-26 00:35:00,
2013-04-25 20:40:00,59.9,10.6,30.17,North,357,0.0,0.0,14,0.00,,,0.00,VWS V14.00,2013-04-26 00:40:00,
2013-04-25 20:45:00,59.4,10.2,30.17,North,357,0.0,0.0,14,0.00,,,0.00,VWS V14.00,2013-04-26 00:45:00,
2013-04-25 20:50:00,58.6,9.6,30.20,North,357,0.0,0.0,14,0.00,,,0.00,VWS V14.00,2013-04-26 00:50:00,
2013-04-25 20:55:00,57.7,8.9,30.20,North,357,0.0,0.0,14,0.00,,,0.00,VWS V14.00,2013-04-26 00:55:00,
2013-04-25 21:00:00,57.4,8.6,30.20,North,357,0.0,0.0,14,0.00,,,0.00,VWS V14.00,2013-04-26 01:00:00,
2013-04-25 21:05:00,57.2,12.8,30.20,North,357,0.0,0.0,17,0.00,,,0.00,VWS V14.00,2013-04-26 01:05:00,
2013-04-25 21:10:00,56.8,12.5,30.20,North,357,0.0,0.0,17,0.00,,,0.00,VWS V14.00,2013-04-26 01:10:00,
2013-04-25 21:15:00,56.7,16.1,30.20,North,357,0.0,0.0,20,0.00,,,0.00,VWS V14.00,2013-04-26 01:15:00,
2013-04-25 21:20:00,56.1,15.6,30.20,North,357,0.0,0.0,20,0.00,,,0.00,VWS V14.00,2013-04-26 01:20:00,
2013-04-25 21:25:00,55.6,17.4,30.20,North,357,0.0,0.0,22,0.00,,,0.00,VWS V14.00,2013-04-26 01:25:00,
2013-04-25 21:30:00,54.9,17.8,30.20,North,357,0.0,0.0,23,0.00,,,0.00,VWS V14.00,2013-04-26 01:30:00,
2013-04-25 21:35:00,54.5,17.5,30.23,ESE,114,0.0,0.0,23,0.00,,,0.00,VWS V14.00,2013-04-26 01:35:00,
2013-04-25 21:40:00,54.1,19.1,30.23,ESE,114,0.0,0.0,25,0.00,,,0.00,VWS V14.00,2013-04-26 01:40:00,
2013-04-25 21:45:00,53.8,19.7,30.23,ESE,114,0.0,0.0,26,0.00,,,0.00,VWS V14.00,2013-04-26 01:45:00,
2013-04-25 21:50:00,53.4,19.4,30.23,ESE,114,0.0,0.0,26,0.00,,,0.00,VWS V14.00,2013-04-26 01:50:00,
2013-04-25 21:55:00,53.6,19.6,30.23,ESE,114,0.0,0.0,26,0.00,,,0.00,VWS V14.00,2013-04-26 01:55:00,
2013-04-25 22:00:00,53.8,19.7,30.23,ESE,114,0.0,0.0,26,0.00,,,0.00,VWS V14.00,2013-04-26 02:00:00,
2013-04-25 22:05:00,53.4,19.4,30.23,ESE,114,0.0,0.0,26,0.00,,,0.00,VWS V14.00,2013-04-26 02:05:00,
2013-04-25 22:11:00,53.4,19.4,30.23,ESE,114,0.0,0.0,26,0.00,,,0.00,VWS V14.00,2013-04-26 02:11:00,
2013-04-25 22:16:00,53.2,20.1,30.23,ESE,114,0.0,0.0,27,0.00,,,0.00,VWS V14.00,2013-04-26 02:16:00,
2013-04-25 22:21:00,53.1,20.0,30.26,ESE,114,0.0,0.0,27,0.00,,,0.00,VWS V14.00,2013-04-26 02:21:00,
2013-04-25 22:26:00,52.7,19.7,30.26,ESE,114,0.0,0.0,27,0.00,,,0.00,VWS V14.00,2013-04-26 02:26:00,
2013-04-25 22:31:00,52.7,19.7,30.26,ESE,114,0.0,0.0,27,0.00,,,0.00,VWS V14.00,2013-04-26 02:31:00,
2013-04-25 22:36:00,52.7,19.7,30.26,ESE,114,0.0,0.0,27,0.00,,,0.00,VWS V14.00,2013-04-26 02:36:00,
2013-04-25 22:41:00,52.5,19.5,30.26,ESE,114,0.0,0.0,27,0.00,,,0.00,VWS V14.00,2013-04-26 02:41:00,
2013-04-25 22:46:00,52.5,19.5,30.26,ESE,114,0.0,0.0,27,0.00,,,0.00,VWS V14.00,2013-04-26 02:46:00,
2013-04-25 22:51:00,52.3,18.5,30.26,ESE,114,0.0,0.0,26,0.00,,,0.00,VWS V14.00,2013-04-26 02:51:00,
2013-04-25 22:56:00,52.3,18.5,30.26,ESE,114,0.0,0.0,26,0.00,,,0.00,VWS V14.00,2013-04-26 02:56:00,
2013-04-25 23:01:00,52.3,18.5,30.26,ESE,114,0.0,0.0,26,0.00,,,0.00,VWS V14.00,2013-04-26 03:01:00,
2013-04-25 23:06:00,52.0,18.2,30.26,ESE,114,0.0,0.0,26,0.00,,,0.00,VWS V14.00,2013-04-26 03:06:00,
2013-04-25 23:11:00,51.6,18.8,30.26,ESE,114,0.0,0.0,27,0.00,,,0.00,VWS V14.00,2013-04-26 03:11:00,
2013-04-25 23:16:00,51.1,18.3,30.26,ESE,114,0.0,0.0,27,0.00,,,0.00,VWS V14.00,2013-04-26 03:16:00,
2013-04-25 23:21:00,50.9,18.1,30.26,ESE,114,0.0,0.0,27,0.00,,,0.00,VWS V14.00,2013-04-26 03:21:00,
2013-04-25 23:26:00,51.4,17.7,30.26,ESE,114,0.0,0.0,26,0.00,,,0.00,VWS V14.00,2013-04-26 03:26:00,
2013-04-25 23:31:00,51.4,18.6,30.26,ESE,114,0.0,0.0,27,0.00,,,0.00,VWS V14.00,2013-04-26 03:31:00,
2013-04-25 23:36:00,51.1,18.3,30.26,ESE,114,0.0,0.0,27,0.00,,,0.00,VWS V14.00,2013-04-26 03:36:00,
2013-04-25 23:41:00,50.9,18.1,30.26,ESE,114,0.0,0.0,27,0.00,,,0.00,VWS V14.00,2013-04-26 03:41:00,
2013-04-25 23:46:00,51.1,18.3,30.26,ESE,114,0.0,0.0,27,0.00,,,0.00,VWS V14.00,2013-04-26 03:46:00,
2013-04-25 23:51:00,50.9,19.0,30.26,ESE,114,0.0,0.0,28,0.00,,,0.00,VWS V14.00,2013-04-26 03:51:00,
2013-04-25 23:56:00,50.4,18.5,30.26,ESE,114,0.0,0.0,28,0.00,,,0.00,VWS V14.00,2013-04-26 03:56:00,